Time;durP1;ratioP1;P1;durP2;ratioP2;P2;SDS_P1;SDS_P2;PMS_P1;PMS_P2;Temp;Humidity;BMP_temperature;BMP_pressure;BME280_temperature;BME280_humidity;BME280_pressure;Samples;Min_cycle;Max_cycle;Signal;HPM_P1;HPM_P2
2023/12/31 00:00:49;;;;;;;;;;;;;;;13.60;50.65;100360.50;106373;1253;61585;-79
2023/12/31 00:03:29;;;;;;;;;;;;;;;13.59;50.49;100356.45;106304;1253;61454;-82
2023/12/31 00:06:03;;;;;;;;;;;;;;;13.64;50.35;100353.49;106417;1254;74600;-81
2023/12/31 00:08:37;;;;;;;;;;;;;;;13.57;50.47;100353.13;106378;1253;68428;-82
2023/12/31 00:11:10;;;;;;;;;;;;;;;13.54;50.54;100359.66;106439;1253;72695;-78
2023/12/31 00:13:44;;;;;;;;;;;;;;;13.52;50.62;100365.64;106033;1254;61349;-79
2023/12/31 00:16:18;;;;;;;;;;;;;;;13.38;50.93;100365.20;106077;1254;61276;-82
2023/12/31 00:18:52;;;;;;;;;;;;;;;13.31;51.21;100370.69;105858;1257;74658;-81
2023/12/31 00:21:26;;;;;;;;;;;;;;;13.30;51.32;100376.63;105967;1257;68340;-81
2023/12/31 00:24:06;;;;;;;;;;;;;;;13.28;51.38;100374.25;106708;1254;72654;-82
2023/12/31 00:26:46;;;;;;;;;;;;;;;13.23;51.65;100383.97;105945;1255;62931;-78
2023/12/31 00:29:27;;;;;;;;;;;;;;;13.32;51.59;100392.24;106482;1254;61244;-79
2023/12/31 04:32:01;;;;;;;;;;;;;;;11.93;51.05;100548.05;106591;1255;68731;-79
2023/12/31 04:34:36;;;;;;;;;;;;;;;11.97;50.91;100550.31;106022;1256;71192;-83
2023/12/31 04:37:10;;;;;;;;;;;;;;;11.95;50.83;100551.98;106750;1257;61349;-78
2023/12/31 04:39:39;;;;;;;;;;;;;;;12.05;50.48;100552.17;106125;1257;61339;-78
2023/12/31 04:42:13;;;;;;;;;;;;;;;12.07;50.29;100552.55;106153;1257;74636;-78
2023/12/31 04:44:47;;;;;;;;;;;;;;;12.03;50.35;100547.14;105938;1257;67122;-82
2023/12/31 04:47:21;;;;;;;;;;;;;;;11.92;50.91;100550.09;105892;1253;72479;-78
2023/12/31 04:49:49;;;;;;;;;;;;;;;11.91;50.82;100550.52;105830;1255;61328;-78
2023/12/31 04:52:23;;;;;;;;;;;;;;;11.92;50.64;100552.59;106241;1257;61259;-81
2023/12/31 04:54:57;;;;;;;;;;;;;;;11.84;51.06;100555.16;106292;1254;72479;-81
2023/12/31 04:57:25;;;;;;;;;;;;;;;11.85;50.91;100555.16;106059;1257;67213;-81
2023/12/31 05:00:00;;;;;;;;;;;;;;;12.03;50.37;100552.52;106397;1253;72495;-79
2023/12/31 05:02:34;;;;;;;;;;;;;;;12.00;50.47;100554.08;106068;1254;61329;-82
2023/12/31 05:05:09;;;;;;;;;;;;;;;11.97;50.66;100553.88;106119;1254;61043;-82
2023/12/31 05:07:37;;;;;;;;;;;;;;;11.74;51.28;100555.45;105901;1254;73623;-79
2023/12/31 05:10:11;;;;;;;;;;;;;;;11.72;51.37;100559.23;105881;1255;68352;-82
2023/12/31 05:12:45;;;;;;;;;;;;;;;11.65;51.47;100559.66;106011;1253;71131;-78
2023/12/31 05:15:19;;;;;;;;;;;;;;;11.64;51.49;100562.84;105942;1253;61061;-79
2023/12/31 05:17:47;;;;;;;;;;;;;;;11.75;51.31;100567.53;105952;1257;61267;-79
2023/12/31 05:20:21;;;;;;;;;;;;;;;11.93;50.76;100565.09;106083;1253;74639;-79
2023/12/31 05:22:55;;;;;;;;;;;;;;;11.88;50.87;100569.05;106287;1254;67234;-82
2023/12/31 05:25:23;;;;;;;;;;;;;;;11.91;50.78;100566.14;105957;1253;72672;-79
2023/12/31 05:27:56;;;;;;;;;;;;;;;11.87;51.00;100565.39;105922;1255;61256;-79
2023/12/31 05:30:30;;;;;;;;;;;;;;;11.85;51.14;100568.14;106017;1259;61127;-79
2023/12/31 05:33:04;;;;;;;;;;;;;;;11.90;50.86;100562.36;105958;1253;73350;-83
2023/12/31 05:35:33;;;;;;;;;;;;;;;11.85;50.79;100566.48;105873;1258;68483;-79
2023/12/31 05:38:07;;;;;;;;;;;;;;;11.89;50.77;100565.10;106497;1253;70085;-83
2023/12/31 05:40:41;;;;;;;;;;;;;;;11.82;50.85;100567.22;106276;1256;61309;-82
2023/12/31 05:43:16;;;;;;;;;;;;;;;11.95;50.77;100569.83;106292;1254;61324;-79
2023/12/31 05:45:43;;;;;;;;;;;;;;;12.00;50.56;100574.49;106350;1252;75956;-78
2023/12/31 05:48:18;;;;;;;;;;;;;;;11.95;50.62;100582.00;106366;1254;67559;-82
2023/12/31 05:50:52;;;;;;;;;;;;;;;11.87;50.75;100584.17;106794;1254;72838;-78
2023/12/31 05:53:26;;;;;;;;;;;;;;;11.78;51.21;100578.73;106404;1257;61333;-79
2023/12/31 05:55:56;;;;;;;;;;;;;;;11.97;51.00;100588.70;106470;1253;62429;-79
2023/12/31 05:58:32;;;;;;;;;;;;;;;12.08;50.73;100590.66;106188;1260;74951;-78
2023/12/31 06:01:07;;;;;;;;;;;;;;;12.06;50.57;100587.55;105982;1254;68515;-79
2023/12/31 06:03:35;;;;;;;;;;;;;;;12.00;50.71;100583.48;105985;1256;73109;-82
2023/12/31 06:06:11;;;;;;;;;;;;;;;11.98;51.00;100586.35;106253;1253;61144;-83
2023/12/31 06:08:46;;;;;;;;;;;;;;;12.10;50.75;100581.07;106252;1253;61325;-79
2023/12/31 06:11:20;;;;;;;;;;;;;;;12.10;50.68;100585.71;105887;1253;72487;-80
2023/12/31 06:13:49;;;;;;;;;;;;;;;12.18;50.61;100583.40;106027;1252;66250;-80
2023/12/31 06:16:25;;;;;;;;;;;;;;;12.23;50.53;100590.55;106233;1254;72723;-83
2023/12/31 06:19:00;;;;;;;;;;;;;;;12.36;50.26;100585.92;106434;1257;61272;-80
2023/12/31 06:21:34;;;;;;;;;;;;;;;12.46;50.08;100584.46;106020;1261;61263;-81
2023/12/31 06:24:04;;;;;;;;;;;;;;;12.52;49.96;100589.78;106312;1253;73451;-81
2023/12/31 06:26:39;;;;;;;;;;;;;;;12.57;49.95;100586.45;106960;1253;67256;-80
2023/12/31 06:29:15;;;;;;;;;;;;;;;12.76;49.40;100591.30;106343;1252;72152;-82
2023/12/31 06:31:49;;;;;;;;;;;;;;;12.85;49.14;100593.17;106344;1252;61331;-79
2023/12/31 06:34:18;;;;;;;;;;;;;;;12.92;48.84;100591.56;106400;1253;61427;-80
2023/12/31 06:36:53;;;;;;;;;;;;;;;12.94;48.89;100593.13;106422;1253;73356;-84
2023/12/31 06:39:29;;;;;;;;;;;;;;;12.96;48.88;100592.77;106158;1260;71179;-82
2023/12/31 06:42:03;;;;;;;;;;;;;;;12.88;49.02;100597.14;106267;1254;71436;-80
2023/12/31 06:44:33;;;;;;;;;;;;;;;13.03;48.63;100602.17;106406;1253;61172;-79
2023/12/31 06:47:08;;;;;;;;;;;;;;;12.99;48.66;100600.10;106406;1253;60017;-80
2023/12/31 06:49:44;;;;;;;;;;;;;;;12.77;49.00;100596.65;106810;1261;75274;-83
2023/12/31 06:52:13;;;;;;;;;;;;;;;12.56;49.53;100597.69;107401;1253;67115;-83
2023/12/31 06:54:49;;;;;;;;;;;;;;;12.52;49.65;100603.65;106227;1253;71476;-83
2023/12/31 06:57:24;;;;;;;;;;;;;;;12.51;49.59;100604.38;106350;1253;61235;-83
2023/12/31 06:59:58;;;;;;;;;;;;;;;12.52;49.67;100605.84;106378;1253;61488;-80
2023/12/31 07:02:25;;;;;;;;;;;;;;;12.49;49.90;100610.03;106248;1253;74580;-79
2023/12/31 07:04:59;;;;;;;;;;;;;;;12.69;49.68;100606.21;106362;1253;67254;-79
2023/12/31 07:07:34;;;;;;;;;;;;;;;12.75;49.52;100610.06;106474;1254;72684;-79
2023/12/31 07:10:09;;;;;;;;;;;;;;;12.76;49.69;100613.29;106464;1254;61109;-80
2023/12/31 07:12:37;;;;;;;;;;;;;;;12.63;50.06;100612.80;106354;1257;61139;-79
2023/12/31 07:15:07;;;;;;;;;;;;;;;12.89;49.45;100617.21;106283;1258;74643;-79
2023/12/31 07:17:40;;;;;;;;;;;;;;;13.01;49.22;100620.52;106380;1253;68263;-80
2023/12/31 07:20:16;;;;;;;;;;;;;;;13.02;49.18;100629.40;106154;1253;70139;-79
2023/12/31 07:22:44;;;;;;;;;;;;;;;12.93;49.33;100636.09;106391;1253;61350;-79
2023/12/31 07:25:18;;;;;;;;;;;;;;;12.91;49.51;100634.14;106373;1253;61769;-83
2023/12/31 07:27:52;;;;;;;;;;;;;;;12.89;49.51;100632.12;106314;1253;74671;-84
2023/12/31 07:30:27;;;;;;;;;;;;;;;12.83;49.75;100630.05;106434;1251;68353;-79
2023/12/31 07:32:55;;;;;;;;;;;;;;;12.89;49.62;100631.23;106192;1253;72430;-79
2023/12/31 07:35:31;;;;;;;;;;;;;;;13.21;49.02;100632.05;107115;1255;59340;-79
2023/12/31 07:38:08;;;;;;;;;;;;;;;13.27;48.81;100630.47;106395;1256;61246;-80
2023/12/31 07:40:42;;;;;;;;;;;;;;;13.33;48.81;100629.30;106223;1253;74663;-80
2023/12/31 07:43:10;;;;;;;;;;;;;;;13.43;48.50;100628.29;106530;1256;67288;-80
2023/12/31 07:45:45;;;;;;;;;;;;;;;13.55;48.10;100628.58;106305;1256;72623;-84
2023/12/31 07:48:19;;;;;;;;;;;;;;;13.77;47.50;100625.41;106421;1260;61327;-85
2023/12/31 07:50:54;;;;;;;;;;;;;;;13.73;47.66;100624.10;106359;1251;61222;-80
2023/12/31 07:53:23;;;;;;;;;;;;;;;13.87;47.35;100633.19;106483;1253;73461;-85
2023/12/31 07:55:59;;;;;;;;;;;;;;;13.89;47.38;100632.52;106329;1253;69365;-80
2023/12/31 07:58:37;;;;;;;;;;;;;;;13.89;47.41;100639.21;107242;1253;72763;-85
2023/12/31 08:01:12;;;;;;;;;;;;;;;13.95;47.30;100646.26;106257;1253;61239;-81
2023/12/31 08:03:41;;;;;;;;;;;;;;;14.02;47.06;100652.80;106518;1256;61126;-86
2023/12/31 08:06:17;;;;;;;;;;;;;;;14.18;46.73;100648.05;106451;1253;75040;-80
2023/12/31 08:08:53;;;;;;;;;;;;;;;14.17;46.61;100655.98;106164;1253;66611;-86
2023/12/31 08:11:21;;;;;;;;;;;;;;;14.15;46.55;100657.94;106205;1253;72427;-86
2023/12/31 08:13:57;;;;;;;;;;;;;;;14.10;46.55;100657.23;106507;1255;61230;-80
2023/12/31 08:16:32;;;;;;;;;;;;;;;14.15;46.54;100657.09;106395;1254;61280;-80
2023/12/31 08:19:08;;;;;;;;;;;;;;;14.25;46.41;100656.30;106334;1252;75166;-86
2023/12/31 08:21:36;;;;;;;;;;;;;;;14.32;46.34;100656.14;106191;1258;68363;-80
2023/12/31 08:24:18;;;;;;;;;;;;;;;14.31;46.40;100663.36;106311;1260;72655;-81
2023/12/31 08:26:54;;;;;;;;;;;;;;;14.46;46.21;100656.46;106328;1256;64023;-86
2023/12/31 08:29:28;;;;;;;;;;;;;;;14.60;46.01;100656.31;106223;1253;61156;-87
2023/12/31 16:33:31;;;;;;;;;;;;;;;10.54;48.71;100826.87;105948;1254;73120;-79
2023/12/31 16:35:59;;;;;;;;;;;;;;;10.41;48.54;100826.23;105841;1261;61346;-79
2023/12/31 16:38:28;;;;;;;;;;;;;;;10.29;48.75;100828.59;105978;1254;61326;-79
2023/12/31 16:40:55;;;;;;;;;;;;;;;10.26;48.47;100831.27;105999;1256;74666;-78
2023/12/31 16:43:24;;;;;;;;;;;;;;;10.12;48.62;100829.39;105983;1255;68403;-78
2023/12/31 16:45:58;;;;;;;;;;;;;;;10.09;48.48;100831.61;105925;1254;71525;-82
2023/12/31 16:48:27;;;;;;;;;;;;;;;10.01;48.41;100831.02;106712;1254;60382;-80
2023/12/31 16:50:55;;;;;;;;;;;;;;;9.89;48.36;100828.58;106664;1253;60739;-80
2023/12/31 16:53:25;;;;;;;;;;;;;;;9.79;48.68;100831.80;106313;1254;73415;-78
2023/12/31 16:55:54;;;;;;;;;;;;;;;9.75;48.39;100831.55;106388;1256;69778;-78
2023/12/31 16:58:28;;;;;;;;;;;;;;;9.66;48.76;100837.41;107468;1254;72664;-81
2023/12/31 17:01:01;;;;;;;;;;;;;;;9.61;48.73;100836.50;106112;1257;61246;-78
2023/12/31 17:03:33;;;;;;;;;;;;;;;9.58;48.69;100835.89;106083;1259;61470;-78
2023/12/31 17:06:01;;;;;;;;;;;;;;;9.65;48.32;100837.77;105896;1259;74593;-80
2023/12/31 17:08:44;;;;;;;;;;;;;;;9.55;48.40;100838.43;106095;1258;66673;-79
2023/12/31 17:11:12;;;;;;;;;;;;;;;9.40;48.64;100841.06;107807;1260;72657;-78
2023/12/31 17:13:47;;;;;;;;;;;;;;;9.35;48.71;100842.44;106081;1257;61311;-80
2023/12/31 17:16:22;;;;;;;;;;;;;;;9.21;48.82;100841.45;106602;1259;61095;-78
2023/12/31 17:18:56;;;;;;;;;;;;;;;9.10;49.02;100842.24;106009;1257;74699;-78
2023/12/31 17:21:30;;;;;;;;;;;;;;;9.03;48.98;100845.83;106177;1257;68267;-78
2023/12/31 17:24:04;;;;;;;;;;;;;;;8.87;49.30;100852.06;106146;1253;70478;-81
2023/12/31 17:26:39;;;;;;;;;;;;;;;9.04;49.04;100849.11;106043;1254;59503;-81
2023/12/31 17:29:13;;;;;;;;;;;;;;;9.15;48.78;100852.08;106765;1257;62292;-80
2023/12/31 17:31:47;;;;;;;;;;;;;;;9.02;49.26;100850.23;105975;1254;73796;-78
2023/12/31 17:34:21;;;;;;;;;;;;;;;8.94;49.31;100856.98;106082;1254;67597;-79
2023/12/31 17:36:55;;;;;;;;;;;;;;;8.79;49.63;100852.85;106012;1260;71764;-79
2023/12/31 17:39:29;;;;;;;;;;;;;;;8.74;49.89;100852.64;106118;1257;61959;-80
2023/12/31 17:42:03;;;;;;;;;;;;;;;8.68;50.38;100854.92;105913;1259;61315;-78
2023/12/31 17:44:37;;;;;;;;;;;;;;;8.66;50.58;100853.92;106651;1255;74612;-78
2023/12/31 17:47:12;;;;;;;;;;;;;;;8.68;50.57;100855.15;106173;1254;68379;-80
2023/12/31 17:49:46;;;;;;;;;;;;;;;8.70;50.55;100855.50;106127;1254;71424;-80
2023/12/31 17:52:20;;;;;;;;;;;;;;;8.64;50.85;100855.32;106281;1257;61443;-78
2023/12/31 17:54:48;;;;;;;;;;;;;;;8.49;51.16;100856.52;106029;1254;61255;-79
2023/12/31 17:57:23;;;;;;;;;;;;;;;8.39;51.74;100848.94;107005;1253;75081;-80
2023/12/31 17:59:56;;;;;;;;;;;;;;;8.28;52.12;100844.81;106092;1259;68958;-81
2023/12/31 18:02:30;;;;;;;;;;;;;;;8.26;52.50;100847.48;105941;1259;74926;-80
2023/12/31 18:05:04;;;;;;;;;;;;;;;8.33;52.42;100845.20;106106;1253;61340;-81
2023/12/31 18:07:38;;;;;;;;;;;;;;;8.31;52.75;100844.31;106132;1254;62242;-79
2023/12/31 18:10:12;;;;;;;;;;;;;;;8.34;52.74;100840.98;106164;1257;75117;-78
2023/12/31 18:12:45;;;;;;;;;;;;;;;8.34;52.72;100840.05;106850;1253;68401;-79
2023/12/31 18:15:17;;;;;;;;;;;;;;;8.29;53.25;100842.27;107928;1257;71752;-80
2023/12/31 18:17:45;;;;;;;;;;;;;;;8.24;53.68;100845.60;105951;1254;61214;-80
2023/12/31 18:20:13;;;;;;;;;;;;;;;8.27;54.18;100845.50;106045;1254;61328;-78
2023/12/31 18:22:48;;;;;;;;;;;;;;;8.35;54.36;100848.23;106020;1257;74903;-80
2023/12/31 18:25:21;;;;;;;;;;;;;;;8.36;54.99;100851.35;105990;1254;66439;-79
2023/12/31 18:27:56;;;;;;;;;;;;;;;8.44;55.53;100850.31;106120;1257;72741;-78
2023/12/31 18:30:29;;;;;;;;;;;;;;;8.56;56.11;100850.23;106023;1261;61148;-80
2023/12/31 18:33:14;;;;;;;;;;;;;;;8.59;56.90;100846.50;105932;1253;61323;-81
2023/12/31 18:35:49;;;;;;;;;;;;;;;8.68;57.41;100845.77;106152;1254;73390;-78
2023/12/31 18:38:23;;;;;;;;;;;;;;;8.87;57.48;100849.45;106213;1260;71272;-78
2023/12/31 18:40:58;;;;;;;;;;;;;;;9.03;57.23;100846.75;106206;1257;71702;-79
2023/12/31 18:43:32;;;;;;;;;;;;;;;9.14;56.99;100847.94;106143;1254;61164;-81
2023/12/31 18:46:06;;;;;;;;;;;;;;;9.11;57.45;100853.37;106144;1254;61564;-78
2023/12/31 18:48:40;;;;;;;;;;;;;;;9.21;57.27;100854.05;106998;1254;76092;-78
2023/12/31 18:51:14;;;;;;;;;;;;;;;9.31;56.68;100850.15;106386;1257;67090;-78
2023/12/31 18:53:51;;;;;;;;;;;;;;;9.36;56.85;100854.29;107661;1254;71423;-78
2023/12/31 18:56:25;;;;;;;;;;;;;;;9.39;56.77;100851.47;106540;1255;61353;-81
2023/12/31 18:58:59;;;;;;;;;;;;;;;9.41;56.78;100849.85;105949;1254;61193;-80
2023/12/31 19:01:33;;;;;;;;;;;;;;;9.44;56.69;100850.80;106249;1254;74634;-80
2023/12/31 19:04:09;;;;;;;;;;;;;;;9.41;56.56;100851.86;106001;1254;68459;-78
2023/12/31 19:06:46;;;;;;;;;;;;;;;9.49;56.36;100856.28;106117;1257;71264;-81
2023/12/31 19:09:26;;;;;;;;;;;;;;;9.45;56.44;100858.00;106487;1255;61323;-80
2023/12/31 19:11:59;;;;;;;;;;;;;;;9.52;57.00;100856.63;106169;1254;62849;-81
2023/12/31 19:14:33;;;;;;;;;;;;;;;9.64;56.28;100857.54;107054;1258;74637;-81
2023/12/31 19:17:13;;;;;;;;;;;;;;;9.61;56.62;100865.05;105991;1253;68424;-78
2023/12/31 19:19:53;;;;;;;;;;;;;;;9.51;56.90;100862.47;106119;1251;71416;-78
2023/12/31 19:22:28;;;;;;;;;;;;;;;9.47;57.33;100865.61;106137;1256;61359;-80
2023/12/31 19:25:03;;;;;;;;;;;;;;;9.38;58.19;100865.53;106572;1254;61211;-78
2023/12/31 19:27:43;;;;;;;;;;;;;;;9.39;58.50;100868.48;106217;1257;75164;-80
2023/12/31 19:30:23;;;;;;;;;;;;;;;9.37;59.03;100865.41;106103;1254;68814;-81
2023/12/31 19:32:57;;;;;;;;;;;;;;;9.34;59.41;100867.80;106172;1254;72580;-79
2023/12/31 19:35:31;;;;;;;;;;;;;;;9.33;59.62;100867.52;106105;1253;61210;-78
2023/12/31 19:38:05;;;;;;;;;;;;;;;9.33;59.96;100862.39;107020;1257;61214;-78
2023/12/31 19:40:44;;;;;;;;;;;;;;;9.41;59.69;100866.05;106243;1253;73404;-78
2023/12/31 19:43:13;;;;;;;;;;;;;;;9.45;59.37;100869.89;106138;1257;67628;-81
2023/12/31 19:45:57;;;;;;;;;;;;;;;9.56;58.54;100866.96;106276;1253;72687;-80
2023/12/31 19:48:32;;;;;;;;;;;;;;;9.59;58.15;100863.93;105900;1255;62120;-78
2023/12/31 19:51:06;;;;;;;;;;;;;;;9.52;58.26;100866.17;106031;1253;61346;-78
2023/12/31 19:53:39;;;;;;;;;;;;;;;9.52;58.25;100868.52;106101;1257;74743;-81
2023/12/31 19:56:12;;;;;;;;;;;;;;;9.47;58.18;100870.23;106047;1257;68380;-81
2023/12/31 19:58:47;;;;;;;;;;;;;;;9.47;58.15;100867.83;106232;1253;72508;-79
2023/12/31 20:01:23;;;;;;;;;;;;;;;9.40;58.51;100870.84;109260;1253;60866;-82
2023/12/31 20:05:47;;;;;;;;;;;;;;;9.51;57.87;100877.04;102837;1291;599142;-79
2023/12/31 20:08:21;;;;;;;;;;;;;;;9.45;57.91;100881.14;105137;1266;59844;-80
2023/12/31 20:10:51;;;;;;;;;;;;;;;9.32;58.30;100887.14;105779;1266;59284;-78
2023/12/31 20:13:25;;;;;;;;;;;;;;;9.31;58.49;100889.97;105014;1266;71683;-80
2023/12/31 20:16:05;;;;;;;;;;;;;;;9.39;58.31;100890.73;105226;1267;68406;-81
2023/12/31 20:18:33;;;;;;;;;;;;;;;9.38;58.41;100894.98;104956;1264;313784;-79
2023/12/31 20:21:09;;;;;;;;;;;;;;;9.36;58.59;100894.69;105342;1264;61748;-80
2023/12/31 20:23:50;;;;;;;;;;;;;;;9.33;58.64;100908.04;105388;1263;60736;-80
2023/12/31 20:26:24;;;;;;;;;;;;;;;9.17;59.35;100912.20;105325;1265;70356;-80
